Latest Coastal Weather Observations for Hamilton Island

IDQ60701

Issued at 2:01 pm EST Friday 19 December 2014 (issued every 10 minutes, with the page automatically refreshed every 10 minutes)

About coastal observations | Map of coastal stations | Coastal observations for QLD | Marine services | Other Formats
Station Details ID: 033106 Name: HAMILTON ISLAND AIRPORT Lat: -20.37 Lon: 148.95 Height: 58.66 m
Data from the previous 72 hours. | See also: Recent months at Hamilton Island
Date/Time
EST
Temp

°C
Wind Pressure Rain
since 9am
mm
Weather Cloud Vis
km
Sea
Height
m
Swell
Dir
 
Speed
knots
Gust
knots
hPa Trend Height
m
Period
s
Dir
19/02:00pm 29.0 NNW 8 10 1011.2 - 0.0 - Partly cloudy 10 - - - -
19/01:30pm 29.3 NNW 9 11 1011.4 - 0.0 - - 10 - - - -
19/01:00pm 29.4 NW 10 13 1011.5 - 0.0 - - 10 - - - -
19/12:30pm 30.6 NNW 9 12 1011.8 - 0.0 - Partly cloudy 10 - - - -
19/12:00pm 29.4 NNW 14 17 1011.6 - 0.0 - Cloudy 10 - - - -
19/11:30am 29.2 NNW 14 17 1012.4 - 0.0 - Partly cloudy 10 - - - -
19/11:00am 29.1 NNW 12 16 1012.5 - 0.0 - Partly cloudy 10 - - - -
19/10:30am 28.5 NNW 14 18 1012.5 - 0.0 - Cloudy 10 - - - -
19/10:00am 28.3 NNW 12 15 1012.5 - 0.0 - Partly cloudy 10 - - - -
19/09:30am 28.3 NW 11 14 1012.5 - 0.0 - - 10 - - - -
19/09:00am 27.9 NNW 11 15 1012.1 - 0.0 - - 10 - - - -
19/08:30am 27.7 NNW 12 15 1012.6 - 0.0 - - 10 - - - -
19/08:00am 27.1 NNW 9 11 1012.4 - 0.0 - - 10 - - - -
19/07:30am 26.9 NNW 8 10 1012.1 - 0.0 - - 10 - - - -
19/07:00am 27.0 N 7 9 1011.8 - 0.0 - - 10 - - - -
19/06:30am 26.2 N 5 7 1011.3 - 0.0 - - 10 - - - -
19/06:00am 25.8 N 3 4 1010.8 - 0.0 - - 10 - - - -
19/05:30am 25.5 N 6 8 1010.8 - 0.0 - - 10 - - - -
19/05:00am 25.4 NNW 5 7 1010.9 - 0.0 - - 10 - - - -
19/04:30am 25.6 N 4 5 1010.7 - 0.0 - - 10 - - - -
19/04:00am 25.6 N 5 6 1010.8 - 0.0 - - 10 - - - -
19/03:30am 25.8 N 6 9 1011.1 - 0.0 - - 10 - - - -
19/03:00am 25.8 N 7 9 1010.7 - 0.0 - - 10 - - - -
19/02:30am 25.8 N 5 6 1011.4 - 0.0 - - 10 - - - -
19/02:00am 26.0 NW 6 8 1011.6 - 0.0 - - 10 - - - -
19/01:30am 26.2 NW 9 11 1011.9 - 0.0 - - 10 - - - -
19/01:00am 25.8 WNW 7 8 1012.5 - 0.0 - - 10 - - - -
19/12:30am 26.0 W 9 11 1013.0 - 0.0 - Partly cloudy 10 - - - -
19/12:00am 26.6 W 12 17 1012.8 - 0.0 - Cloudy 10 - - - -
 
Date/Time
EST
Temp

°C
Wind Pressure Rain
since 9am
mm
Weather Cloud Vis
km
Sea
Height
m
Swell
Dir
 
Speed
knots
Gust
knots
hPa Trend Height
m
Period
s
Dir
18/11:30pm 26.2 NW 5 6 1013.2 - 0.0 - Partly cloudy 10 - - - -
18/11:00pm 26.1 N 7 9 1012.8 - 0.0 - - 10 - - - -
18/10:30pm 26.1 N 6 8 1012.8 - 0.0 - - 10 - - - -
18/10:00pm 26.3 N 8 10 1012.8 - 0.0 - - 10 - - - -
18/09:30pm 26.3 N 8 10 1012.9 - 0.0 - - 10 - - - -
18/09:00pm 26.3 N 9 14 1011.9 - 0.0 - - 10 - - - -
18/08:30pm 26.5 N 10 14 1012.1 - 0.0 - - 10 - - - -
18/08:00pm 26.6 N 10 14 1012.0 - 0.0 - - 10 - - - -
18/07:30pm 26.8 NNW 11 15 1011.4 - 0.0 - - 10 - - - -
18/07:00pm 26.8 NNW 12 17 1010.9 - 0.0 - - 10 - - - -
18/06:30pm 27.2 NNW 15 19 1010.7 - 0.0 - - 10 - - - -
18/06:00pm 27.8 NNW 15 19 1010.1 - 0.0 - - 10 - - - -
18/05:30pm 28.1 NNW 16 19 1010.4 - 0.0 - - 10 - - - -
18/05:00pm 28.1 NW 17 22 1009.4 - 0.0 - - 10 - - - -
18/04:30pm 28.8 NW 17 21 1008.8 - 0.0 - - 10 - - - -
18/04:00pm 28.8 NW 16 21 1008.9 - 0.0 - - 10 - - - -
18/03:30pm 28.9 NW 17 21 1009.2 - 0.0 - - 10 - - - -
18/03:00pm 29.5 NW 16 21 1009.4 - 0.0 - - 10 - - - -
18/02:30pm 29.6 NW 16 20 1010.2 - 0.0 - - 10 - - - -
18/02:00pm 29.9 NW 15 21 1010.7 - 0.0 - - 10 - - - -
18/01:30pm 29.7 NW 16 22 1011.1 - 0.0 - - 10 - - - -
18/01:00pm 29.3 NW 14 19 1011.3 - 0.0 - - 10 - - - -
18/12:30pm 29.0 NW 16 19 1011.5 - 0.0 - - 10 - - - -
18/12:00pm 29.1 NW 14 19 1011.3 - 0.0 - - 10 - - - -
18/11:30am 29.1 NW 15 20 1012.0 - 0.0 - - 10 - - - -
18/11:00am 29.1 NW 15 20 1012.4 - 0.0 - - 10 - - - -
18/10:30am 29.2 NW 14 18 1012.6 - 0.0 - - 10 - - - -
18/10:00am 28.9 NW 13 17 1012.9 - 0.0 - - 10 - - - -
18/09:30am 28.6 NW 13 18 1013.1 - 0.0 - - 10 - - - -
18/09:00am 28.6 NW 10 14 1012.9 - 0.0 - - 10 - - - -
18/08:30am 28.3 NNW 10 14 1013.0 - 0.0 - - 10 - - - -
18/08:00am 28.2 N 10 15 1013.0 - 0.0 - - 10 - - - -
18/07:30am 27.7 N 8 11 1012.7 - 0.0 - - 10 - - - -
18/07:00am 27.1 N 8 10 1012.3 - 0.0 - - 10 - - - -
18/06:30am 26.5 N 7 10 1011.8 - 0.0 - - 10 - - - -
18/06:00am 26.0 N 8 11 1011.1 - 0.0 - - 10 - - - -
18/05:30am 25.8 N 9 12 1010.9 - 0.0 - - 10 - - - -
18/05:00am 25.8 N 8 11 1010.5 - 0.0 - - 10 - - - -
18/04:30am 25.7 N 8 10 1010.2 - 0.0 - - 10 - - - -
18/04:00am 25.7 N 8 11 1009.9 - 0.0 - - 10 - - - -
18/03:30am 25.9 N 8 11 1009.9 - 0.0 - - 10 - - - -
18/03:00am 25.8 N 9 13 1009.1 - 0.0 - - 10 - - - -
18/02:30am 26.2 NNW 11 16 1009.7 - 0.0 - - 10 - - - -
18/02:00am 26.4 NNW 13 17 1009.8 - 0.0 - - 10 - - - -
18/01:30am 26.6 NNW 14 18 1009.7 - 0.0 - - 10 - - - -
18/01:00am 26.7 NNW 15 19 1009.7 - 0.0 - - 10 - - - -
18/12:30am 26.7 NNW 15 19 1009.8 - 0.0 - - 10 - - - -
18/12:00am 26.8 NW 14 20 1009.8 - 0.0 - - 10 - - - -
 
Date/Time
EST
Temp

°C
Wind Pressure Rain
since 9am
mm
Weather Cloud Vis
km
Sea
Height
m
Swell
Dir
 
Speed
knots
Gust
knots
hPa Trend Height
m
Period
s
Dir
17/11:30pm 26.9 NW 15 19 1010.4 - 0.0 - - 10 - - - -
17/11:00pm 26.8 NW 16 20 1010.3 - 0.0 - - 10 - - - -
17/10:30pm 26.9 NNW 15 21 1010.2 - 0.0 - - 10 - - - -
17/10:00pm 27.0 NNW 15 20 1010.3 - 0.0 - - 10 - - - -
17/09:30pm 27.0 NNW 15 18 1010.3 - 0.0 - - 10 - - - -
17/09:00pm 26.8 NNW 12 17 1009.5 - 0.0 - - 10 - - - -
17/08:30pm 26.9 NNW 12 17 1009.5 - 0.0 - - 10 - - - -
17/08:00pm 27.1 NNW 16 22 1009.3 - 0.0 - - 10 - - - -
17/07:30pm 27.1 NNW 18 22 1009.2 - 0.0 - - 10 - - - -
17/07:00pm 27.2 NNW 16 20 1008.9 - 0.0 - - 10 - - - -
17/06:30pm 27.5 NNW 18 24 1008.7 - 0.0 - - 10 - - - -
17/06:00pm 28.1 NNW 20 23 1008.0 - 0.0 - - 10 - - - -
17/05:30pm 29.0 NNW 17 21 1008.1 - 0.0 - - 10 - - - -
17/05:00pm 28.7 NNW 17 22 1007.6 - 0.0 - - 10 - - - -
17/04:30pm 29.1 NNW 19 23 1007.6 - 0.0 - - 10 - - - -
17/04:00pm 29.4 NNW 18 24 1007.4 - 0.0 - - 10 - - - -
17/03:30pm 29.6 NNW 20 23 1007.5 - 0.0 - - 10 - - - -
17/03:00pm 30.1 NNW 19 22 1007.2 - 0.0 - - 10 - - - -
17/02:30pm 30.0 NNW 18 23 1007.8 - 0.0 - - 10 - - - -
17/02:00pm 30.2 NNW 19 24 1007.8 - 0.0 - - 10 - - - -
17/01:30pm 29.9 NNW 21 26 1008.3 - 0.0 - - 10 - - - -
17/01:00pm 29.7 NNW 20 25 1008.6 - 0.0 - - 10 - - - -
17/12:30pm 29.5 NNW 17 21 1009.0 - 0.0 - - 10 - - - -
17/12:00pm 29.7 NNW 18 22 1008.8 - 0.0 - - 10 - - - -
17/11:30am 29.5 NNW 16 21 1009.5 - 0.0 - - 10 - - - -
17/11:00am 28.9 NW 16 20 1010.1 - 0.0 - - 10 - - - -
17/10:30am 28.8 NNW 16 19 1010.2 - 0.0 - - 10 - - - -
17/10:00am 28.5 NNW 16 20 1010.2 - 0.0 - - 10 - - - -
17/09:30am 28.7 NNW 14 19 1010.6 - 0.0 - - 10 - - - -
17/09:00am 28.1 NW 14 17 1010.2 - 0.0 - - 10 - - - -
17/08:30am 28.0 NNW 12 16 1010.6 - 0.0 - - 10 - - - -
17/08:00am 27.7 NNW 9 13 1010.7 - 0.0 - - 10 - - - -
17/07:30am 27.3 N 8 11 1010.5 - 0.0 - - 10 - - - -
17/07:00am 26.7 NNW 5 7 1010.3 - 0.0 - - 10 - - - -
17/06:30am 26.2 N 6 9 1009.9 - 0.0 - - 10 - - - -
17/06:00am 25.7 N 6 9 1009.1 - 0.0 - - 10 - - - -
17/05:30am 25.2 N 6 8 1009.1 - 0.0 - - 10 - - - -
17/05:00am 25.3 N 6 8 1008.7 - 0.0 - - 10 - - - -
17/04:30am 25.2 N 6 8 1008.4 - 0.0 - - 10 - - - -
17/04:00am 25.3 N 8 11 1008.2 - 0.0 - - 10 - - - -
17/03:30am 25.2 N 8 9 1008.1 - 0.0 - - 10 - - - -
17/03:00am 25.5 N 8 10 1007.6 - 0.0 - - 10 - - - -
17/02:30am 25.7 N 9 11 1008.1 - 0.0 - - 10 - - - -
17/02:00am 26.0 NNW 12 15 1008.3 - 0.0 - - 10 - - - -
17/01:30am 26.0 NNW 10 14 1008.6 - 0.0 - - 10 - - - -
17/01:00am 26.0 NNW 12 17 1008.8 - 0.0 - - 10 - - - -
17/12:30am 26.2 NNW 14 18 1009.0 - 0.0 - - 10 - - - -
17/12:00am 26.3 NNW 14 18 1008.9 - 0.0 - - 10 - - - -
 
Date/Time
EST
Temp

°C
Wind Pressure Rain
since 9am
mm
Weather Cloud Vis
km
Sea
Height
m
Swell
Dir
 
Speed
knots
Gust
knots
hPa Trend Height
m
Period
s
Dir
16/11:30pm 26.4 NNW 13 17 1009.6 - 0.0 - - 10 - - - -
16/11:00pm 26.5 NNW 15 19 1009.8 - 0.0 - - 10 - - - -
16/10:30pm 26.6 NNW 16 20 1010.1 - 0.0 - - 10 - - - -
16/10:00pm 26.7 NNW 16 20 1010.0 - 0.0 - - 10 - - - -
16/09:30pm 26.7 NNW 17 22 1009.8 - 0.0 - - 10 - - - -
16/09:00pm 26.8 NNW 19 24 1009.2 - 0.0 - - 10 - - - -
16/08:30pm 26.8 NNW 17 22 1009.5 - 0.0 - - 10 - - - -
16/08:00pm 26.8 NNW 18 22 1009.3 - 0.0 - - 10 - - - -
16/07:30pm 26.9 NNW 16 22 1009.1 - 0.0 - - 10 - - - -
16/07:00pm 27.0 NNW 18 23 1008.9 - 0.0 - - 10 - - - -
16/06:30pm 27.3 NNW 18 23 1008.5 - 0.0 - - 10 - - - -
16/06:00pm 28.0 NNW 18 23 1007.9 - 0.0 - - 10 - - - -
16/05:30pm 28.2 NNW 19 23 1008.2 - 0.0 - - 10 - - - -
16/05:00pm 28.7 NW 18 21 1007.9 - 0.0 - - 10 - - - -
16/04:30pm 28.5 NW 19 23 1007.8 - 0.0 - - 10 - - - -
16/04:00pm 28.8 NNW 18 21 1007.8 - 0.0 - - 10 - - - -
16/03:30pm 28.9 NNW 17 20 1008.2 - 0.0 - - 10 - - - -
16/03:00pm 29.4 NW 16 21 1008.1 - 0.0 - - 10 - - - -
16/02:30pm 29.4 NNW 17 20 1008.8 - 0.0 - - 10 - - - -

Other Formats:

Comma delimited format used in spreadsheet applications
http://www.bom.gov.au/fwo/IDQ60701/IDQ60701.94368.axf

JavaScript Object Notation format (JSON) in row-major order
http://www.bom.gov.au/fwo/IDQ60701/IDQ60701.94368.json